sensor_id;sensor_type;location;lat;lon;timestamp;temperature;humidity
69189;DHT22;56302;52.322;5.926;2022-08-04T00:05:16;18.90;77.10
69189;DHT22;56302;52.322;5.926;2022-08-04T00:10:55;18.40;79.10
69189;DHT22;56302;52.322;5.926;2022-08-04T00:13:23;18.40;79.30
69189;DHT22;56302;52.322;5.926;2022-08-04T00:15:55;18.30;79.50
69189;DHT22;56302;52.322;5.926;2022-08-04T00:18:26;18.40;76.90
69189;DHT22;56302;52.322;5.926;2022-08-04T00:20:56;18.60;76.30
69189;DHT22;56302;52.322;5.926;2022-08-04T00:23:26;18.70;75.40
69189;DHT22;56302;52.322;5.926;2022-08-04T00:25:52;18.70;75.30
69189;DHT22;56302;52.322;5.926;2022-08-04T00:28:20;18.70;74.90
69189;DHT22;56302;52.322;5.926;2022-08-04T00:30:45;18.70;75.00
69189;DHT22;56302;52.322;5.926;2022-08-04T00:33:15;18.70;75.30
69189;DHT22;56302;52.322;5.926;2022-08-04T00:35:43;18.70;75.40
69189;DHT22;56302;52.322;5.926;2022-08-04T00:38:09;18.70;76.10
69189;DHT22;56302;52.322;5.926;2022-08-04T00:43:30;18.60;75.60
69189;DHT22;56302;52.322;5.926;2022-08-04T00:48:48;18.50;75.90
69189;DHT22;56302;52.322;5.926;2022-08-04T00:51:33;18.50;75.70
69189;DHT22;56302;52.322;5.926;2022-08-04T00:54:11;18.50;75.70
69189;DHT22;56302;52.322;5.926;2022-08-04T00:59:50;18.40;75.50
69189;DHT22;56302;52.322;5.926;2022-08-04T01:02:33;18.40;75.60
69189;DHT22;56302;52.322;5.926;2022-08-04T01:29:12;18.10;76.70
69189;DHT22;56302;52.322;5.926;2022-08-04T01:34:12;18.00;78.30
69189;DHT22;56302;52.322;5.926;2022-08-04T01:36:44;17.80;78.20
69189;DHT22;56302;52.322;5.926;2022-08-04T01:39:12;17.70;79.10
69189;DHT22;56302;52.322;5.926;2022-08-04T01:41:57;17.60;80.40
69189;DHT22;56302;52.322;5.926;2022-08-04T01:44:26;17.60;78.70
69189;DHT22;56302;52.322;5.926;2022-08-04T01:46:53;17.70;77.30
69189;DHT22;56302;52.322;5.926;2022-08-04T01:49:20;17.70;76.60
69189;DHT22;56302;52.322;5.926;2022-08-04T01:51:49;17.70;76.60
69189;DHT22;56302;52.322;5.926;2022-08-04T01:54:17;17.60;78.30
69189;DHT22;56302;52.322;5.926;2022-08-04T01:56:44;17.60;78.30
69189;DHT22;56302;52.322;5.926;2022-08-04T01:59:14;17.50;80.80
69189;DHT22;56302;52.322;5.926;2022-08-04T02:01:41;17.20;81.10
69189;DHT22;56302;52.322;5.926;2022-08-04T02:04:15;17.30;78.80
69189;DHT22;56302;52.322;5.926;2022-08-04T02:07:16;17.40;80.40
69189;DHT22;56302;52.322;5.926;2022-08-04T02:09:52;17.40;78.40
69189;DHT22;56302;52.322;5.926;2022-08-04T02:21:03;17.50;77.50
69189;DHT22;56302;52.322;5.926;2022-08-04T02:23:35;17.50;79.60
69189;DHT22;56302;52.322;5.926;2022-08-04T02:26:03;17.20;81.70
69189;DHT22;56302;52.322;5.926;2022-08-04T02:28:34;17.00;82.90
69189;DHT22;56302;52.322;5.926;2022-08-04T02:31:25;17.00;82.90
69189;DHT22;56302;52.322;5.926;2022-08-04T02:36:36;16.90;82.40
69189;DHT22;56302;52.322;5.926;2022-08-04T02:39:04;17.10;79.70
69189;DHT22;56302;52.322;5.926;2022-08-04T02:41:31;17.20;78.70
69189;DHT22;56302;52.322;5.926;2022-08-04T02:44:06;17.20;79.10
69189;DHT22;56302;52.322;5.926;2022-08-04T02:46:34;17.10;81.00
69189;DHT22;56302;52.322;5.926;2022-08-04T02:49:02;16.90;80.60
69189;DHT22;56302;52.322;5.926;2022-08-04T02:51:32;17.00;79.90
69189;DHT22;56302;52.322;5.926;2022-08-04T02:53:59;17.10;78.90
69189;DHT22;56302;52.322;5.926;2022-08-04T02:56:28;17.10;78.70
69189;DHT22;56302;52.322;5.926;2022-08-04T02:58:59;17.20;79.50
69189;DHT22;56302;52.322;5.926;2022-08-04T03:01:26;17.10;80.50
69189;DHT22;56302;52.322;5.926;2022-08-04T03:04:13;16.90;82.30
69189;DHT22;56302;52.322;5.926;2022-08-04T03:26:50;16.90;80.60
69189;DHT22;56302;52.322;5.926;2022-08-04T03:35:02;16.90;81.30
69189;DHT22;56302;52.322;5.926;2022-08-04T03:40:44;16.80;82.40
69189;DHT22;56302;52.322;5.926;2022-08-04T03:46:26;16.60;82.10
69189;DHT22;56302;52.322;5.926;2022-08-04T03:58:09;16.80;79.50
69189;DHT22;56302;52.322;5.926;2022-08-04T04:01:05;16.80;80.40
69189;DHT22;56302;52.322;5.926;2022-08-04T04:03:40;16.70;81.80
69189;DHT22;56302;52.322;5.926;2022-08-04T04:06:33;16.60;83.30
69189;DHT22;56302;52.322;5.926;2022-08-04T04:14:47;16.30;84.70
69189;DHT22;56302;52.322;5.926;2022-08-04T04:23:19;16.50;84.50
69189;DHT22;56302;52.322;5.926;2022-08-04T04:31:21;16.50;85.60
69189;DHT22;56302;52.322;5.926;2022-08-04T04:34:25;16.50;84.80
69189;DHT22;56302;52.322;5.926;2022-08-04T04:37:34;16.50;83.50
69189;DHT22;56302;52.322;5.926;2022-08-04T04:43:10;16.70;84.00
69189;DHT22;56302;52.322;5.926;2022-08-04T04:48:46;16.80;83.90
69189;DHT22;56302;52.322;5.926;2022-08-04T04:51:22;16.80;84.60
69189;DHT22;56302;52.322;5.926;2022-08-04T04:54:13;16.80;85.40
69189;DHT22;56302;52.322;5.926;2022-08-04T04:59:38;17.00;84.00
69189;DHT22;56302;52.322;5.926;2022-08-04T05:02:43;17.00;84.70
69189;DHT22;56302;52.322;5.926;2022-08-04T05:13:52;17.30;84.70
69189;DHT22;56302;52.322;5.926;2022-08-04T05:16:26;17.40;86.30
69189;DHT22;56302;52.322;5.926;2022-08-04T05:19:21;17.40;84.80
69189;DHT22;56302;52.322;5.926;2022-08-04T05:22:05;17.50;85.30
69189;DHT22;56302;52.322;5.926;2022-08-04T05:24:36;17.60;85.60
69189;DHT22;56302;52.322;5.926;2022-08-04T05:27:06;17.70;86.70
69189;DHT22;56302;52.322;5.926;2022-08-04T05:29:39;17.70;84.50
69189;DHT22;56302;52.322;5.926;2022-08-04T05:32:11;17.90;85.80
69189;DHT22;56302;52.322;5.926;2022-08-04T05:34:44;17.90;84.50
69189;DHT22;56302;52.322;5.926;2022-08-04T05:37:15;18.00;85.80
69189;DHT22;56302;52.322;5.926;2022-08-04T05:39:45;18.10;86.10
69189;DHT22;56302;52.322;5.926;2022-08-04T05:42:12;18.30;87.90
69189;DHT22;56302;52.322;5.926;2022-08-04T05:44:39;18.30;87.20
69189;DHT22;56302;52.322;5.926;2022-08-04T05:47:07;18.50;88.40
69189;DHT22;56302;52.322;5.926;2022-08-04T05:49:36;18.50;85.50
69189;DHT22;56302;52.322;5.926;2022-08-04T05:52:03;18.60;87.50
69189;DHT22;56302;52.322;5.926;2022-08-04T05:54:31;18.80;88.30
69189;DHT22;56302;52.322;5.926;2022-08-04T05:56:57;19.00;88.70
69189;DHT22;56302;52.322;5.926;2022-08-04T05:59:25;19.10;87.80
69189;DHT22;56302;52.322;5.926;2022-08-04T06:01:52;19.30;87.90
69189;DHT22;56302;52.322;5.926;2022-08-04T06:04:21;19.50;87.20
69189;DHT22;56302;52.322;5.926;2022-08-04T06:06:47;19.60;87.30
69189;DHT22;56302;52.322;5.926;2022-08-04T06:09:13;19.80;87.00
69189;DHT22;56302;52.322;5.926;2022-08-04T06:11:39;20.00;87.50
69189;DHT22;56302;52.322;5.926;2022-08-04T06:14:08;20.20;86.30
69189;DHT22;56302;52.322;5.926;2022-08-04T06:16:42;20.30;86.10
69189;DHT22;56302;52.322;5.926;2022-08-04T06:19:10;20.70;85.40
69189;DHT22;56302;52.322;5.926;2022-08-04T06:21:39;20.90;85.10
69189;DHT22;56302;52.322;5.926;2022-08-04T06:24:08;21.20;84.30
69189;DHT22;56302;52.322;5.926;2022-08-04T06:26:36;21.40;84.70
69189;DHT22;56302;52.322;5.926;2022-08-04T06:29:02;21.60;84.20
69189;DHT22;56302;52.322;5.926;2022-08-04T06:31:31;21.90;82.70
69189;DHT22;56302;52.322;5.926;2022-08-04T06:34:28;22.20;81.00
69189;DHT22;56302;52.322;5.926;2022-08-04T06:36:54;22.40;81.30
69189;DHT22;56302;52.322;5.926;2022-08-04T06:39:23;22.50;81.60
69189;DHT22;56302;52.322;5.926;2022-08-04T06:41:49;22.70;79.80
69189;DHT22;56302;52.322;5.926;2022-08-04T06:44:17;22.90;79.20
69189;DHT22;56302;52.322;5.926;2022-08-04T06:46:44;23.20;76.00
69189;DHT22;56302;52.322;5.926;2022-08-04T06:49:10;23.40;74.80
69189;DHT22;56302;52.322;5.926;2022-08-04T06:51:36;23.70;75.70
69189;DHT22;56302;52.322;5.926;2022-08-04T06:54:03;23.90;75.30
69189;DHT22;56302;52.322;5.926;2022-08-04T06:56:30;24.10;73.10
69189;DHT22;56302;52.322;5.926;2022-08-04T06:58:58;24.10;71.80
69189;DHT22;56302;52.322;5.926;2022-08-04T07:01:25;24.20;73.50
69189;DHT22;56302;52.322;5.926;2022-08-04T07:03:52;24.30;73.60
69189;DHT22;56302;52.322;5.926;2022-08-04T07:06:19;24.30;74.10
69189;DHT22;56302;52.322;5.926;2022-08-04T07:08:45;24.30;73.10
69189;DHT22;56302;52.322;5.926;2022-08-04T07:11:11;24.40;71.60
69189;DHT22;56302;52.322;5.926;2022-08-04T07:13:37;24.40;71.30
69189;DHT22;56302;52.322;5.926;2022-08-04T07:16:04;24.40;72.40
69189;DHT22;56302;52.322;5.926;2022-08-04T07:18:31;24.50;72.60
69189;DHT22;56302;52.322;5.926;2022-08-04T07:20:56;24.50;71.40
69189;DHT22;56302;52.322;5.926;2022-08-04T07:23:23;24.60;69.80
69189;DHT22;56302;52.322;5.926;2022-08-04T07:25:51;24.70;68.60
69189;DHT22;56302;52.322;5.926;2022-08-04T07:28:17;24.70;67.90
69189;DHT22;56302;52.322;5.926;2022-08-04T07:30:44;24.70;66.10
69189;DHT22;56302;52.322;5.926;2022-08-04T07:33:11;24.70;66.90
69189;DHT22;56302;52.322;5.926;2022-08-04T07:35:37;24.80;66.10
69189;DHT22;56302;52.322;5.926;2022-08-04T07:38:03;24.80;66.20
69189;DHT22;56302;52.322;5.926;2022-08-04T07:40:30;24.90;65.80
69189;DHT22;56302;52.322;5.926;2022-08-04T07:42:56;24.90;65.10
69189;DHT22;56302;52.322;5.926;2022-08-04T07:45:23;24.90;65.60
69189;DHT22;56302;52.322;5.926;2022-08-04T07:47:49;25.00;65.00
69189;DHT22;56302;52.322;5.926;2022-08-04T07:50:15;25.00;64.60
69189;DHT22;56302;52.322;5.926;2022-08-04T07:52:43;25.10;64.40
69189;DHT22;56302;52.322;5.926;2022-08-04T07:55:08;25.20;64.70
69189;DHT22;56302;52.322;5.926;2022-08-04T07:57:35;25.20;64.40
69189;DHT22;56302;52.322;5.926;2022-08-04T08:00:02;25.30;63.50
69189;DHT22;56302;52.322;5.926;2022-08-04T08:02:28;25.40;63.40
69189;DHT22;56302;52.322;5.926;2022-08-04T08:04:55;25.60;63.20
69189;DHT22;56302;52.322;5.926;2022-08-04T08:07:20;25.60;62.60
69189;DHT22;56302;52.322;5.926;2022-08-04T08:09:46;25.70;63.50
69189;DHT22;56302;52.322;5.926;2022-08-04T08:12:12;25.70;62.80
69189;DHT22;56302;52.322;5.926;2022-08-04T08:14:38;25.70;62.90
69189;DHT22;56302;52.322;5.926;2022-08-04T08:17:04;25.70;62.90
69189;DHT22;56302;52.322;5.926;2022-08-04T08:19:30;25.70;62.50
69189;DHT22;56302;52.322;5.926;2022-08-04T08:21:57;25.90;62.80
69189;DHT22;56302;52.322;5.926;2022-08-04T08:24:23;25.80;62.30
69189;DHT22;56302;52.322;5.926;2022-08-04T08:26:48;25.80;62.90
69189;DHT22;56302;52.322;5.926;2022-08-04T08:29:14;25.70;62.30
69189;DHT22;56302;52.322;5.926;2022-08-04T08:31:40;25.70;63.10
69189;DHT22;56302;52.322;5.926;2022-08-04T08:34:06;25.90;62.90
69189;DHT22;56302;52.322;5.926;2022-08-04T08:36:45;26.10;62.50
69189;DHT22;56302;52.322;5.926;2022-08-04T08:39:21;26.30;62.30
69189;DHT22;56302;52.322;5.926;2022-08-04T08:42:23;26.40;61.00
69189;DHT22;56302;52.322;5.926;2022-08-04T08:47:55;26.60;61.50
69189;DHT22;56302;52.322;5.926;2022-08-04T08:50:44;27.00;60.20
69189;DHT22;56302;52.322;5.926;2022-08-04T08:58:46;26.80;61.20
69189;DHT22;56302;52.322;5.926;2022-08-04T09:13:09;27.20;59.40
69189;DHT22;56302;52.322;5.926;2022-08-04T09:15:48;27.70;56.50
69189;DHT22;56302;52.322;5.926;2022-08-04T09:18:27;27.80;56.30
69189;DHT22;56302;52.322;5.926;2022-08-04T09:23:56;28.40;54.40
69189;DHT22;56302;52.322;5.926;2022-08-04T09:26:43;28.30;53.60
69189;DHT22;56302;52.322;5.926;2022-08-04T09:29:32;28.00;53.60
69189;DHT22;56302;52.322;5.926;2022-08-04T09:32:16;27.80;54.20
69189;DHT22;56302;52.322;5.926;2022-08-04T09:37:37;27.70;54.50
69189;DHT22;56302;52.322;5.926;2022-08-04T09:46:01;28.80;52.10
69189;DHT22;56302;52.322;5.926;2022-08-04T09:48:51;28.60;52.30
69189;DHT22;56302;52.322;5.926;2022-08-04T09:57:17;28.80;53.20
69189;DHT22;56302;52.322;5.926;2022-08-04T10:02:36;29.30;53.00
69189;DHT22;56302;52.322;5.926;2022-08-04T10:05:08;29.50;51.20
69189;DHT22;56302;52.322;5.926;2022-08-04T10:15:33;28.30;53.50
69189;DHT22;56302;52.322;5.926;2022-08-04T10:18:39;28.30;54.70
69189;DHT22;56302;52.322;5.926;2022-08-04T10:21:20;28.60;53.90
69189;DHT22;56302;52.322;5.926;2022-08-04T10:29:13;28.00;52.90
69189;DHT22;56302;52.322;5.926;2022-08-04T10:32:05;27.80;53.70
69189;DHT22;56302;52.322;5.926;2022-08-04T10:35:07;27.60;53.80
69189;DHT22;56302;52.322;5.926;2022-08-04T10:38:12;27.50;54.20
69189;DHT22;56302;52.322;5.926;2022-08-04T10:41:08;27.80;52.90
69189;DHT22;56302;52.322;5.926;2022-08-04T10:46:28;28.50;51.50
69189;DHT22;56302;52.322;5.926;2022-08-04T10:49:03;28.30;52.10
69189;DHT22;56302;52.322;5.926;2022-08-04T11:00:12;28.30;53.50
69189;DHT22;56302;52.322;5.926;2022-08-04T11:03:00;28.10;54.20
69189;DHT22;56302;52.322;5.926;2022-08-04T11:05:31;28.00;54.10
69189;DHT22;56302;52.322;5.926;2022-08-04T11:10:54;27.60;53.30
69189;DHT22;56302;52.322;5.926;2022-08-04T11:13:23;27.40;53.80
69189;DHT22;56302;52.322;5.926;2022-08-04T11:15:52;27.20;53.70
69189;DHT22;56302;52.322;5.926;2022-08-04T11:18:35;27.20;54.10
69189;DHT22;56302;52.322;5.926;2022-08-04T11:21:13;27.00;54.40
69189;DHT22;56302;52.322;5.926;2022-08-04T11:24:08;26.80;54.60
69189;DHT22;56302;52.322;5.926;2022-08-04T11:26:47;26.60;55.70
69189;DHT22;56302;52.322;5.926;2022-08-04T11:32:19;26.30;56.70
69189;DHT22;56302;52.322;5.926;2022-08-04T11:34:47;26.30;57.00
69189;DHT22;56302;52.322;5.926;2022-08-04T11:37:25;26.40;56.60
69189;DHT22;56302;52.322;5.926;2022-08-04T11:40:03;26.40;56.40
69189;DHT22;56302;52.322;5.926;2022-08-04T11:42:40;26.30;56.10
69189;DHT22;56302;52.322;5.926;2022-08-04T11:45:14;26.20;57.40
69189;DHT22;56302;52.322;5.926;2022-08-04T11:47:48;26.00;58.30
69189;DHT22;56302;52.322;5.926;2022-08-04T11:52:47;25.70;60.50
69189;DHT22;56302;52.322;5.926;2022-08-04T11:55:15;25.50;61.40
69189;DHT22;56302;52.322;5.926;2022-08-04T11:57:43;25.30;63.50
69189;DHT22;56302;52.322;5.926;2022-08-04T12:00:11;25.00;63.70
69189;DHT22;56302;52.322;5.926;2022-08-04T12:05:07;24.90;65.20
69189;DHT22;56302;52.322;5.926;2022-08-04T12:10:52;24.90;68.20
69189;DHT22;56302;52.322;5.926;2022-08-04T12:16:16;24.80;66.70
69189;DHT22;56302;52.322;5.926;2022-08-04T12:21:22;25.00;67.00
69189;DHT22;56302;52.322;5.926;2022-08-04T12:23:51;25.20;66.00
69189;DHT22;56302;52.322;5.926;2022-08-04T12:26:24;25.30;66.20
69189;DHT22;56302;52.322;5.926;2022-08-04T12:28:57;25.50;65.00
69189;DHT22;56302;52.322;5.926;2022-08-04T12:31:39;25.70;62.60
69189;DHT22;56302;52.322;5.926;2022-08-04T12:34:18;25.80;62.30
69189;DHT22;56302;52.322;5.926;2022-08-04T12:39:39;26.00;60.90
69189;DHT22;56302;52.322;5.926;2022-08-04T12:42:26;25.90;59.90
69189;DHT22;56302;52.322;5.926;2022-08-04T12:44:54;25.90;58.80
69189;DHT22;56302;52.322;5.926;2022-08-04T12:47:26;26.10;58.50
69189;DHT22;56302;52.322;5.926;2022-08-04T12:49:54;26.10;58.00
69189;DHT22;56302;52.322;5.926;2022-08-04T12:52:20;26.20;57.50
69189;DHT22;56302;52.322;5.926;2022-08-04T12:54:51;26.40;57.10
69189;DHT22;56302;52.322;5.926;2022-08-04T12:57:19;26.50;55.10
69189;DHT22;56302;52.322;5.926;2022-08-04T12:59:46;26.60;54.40
69189;DHT22;56302;52.322;5.926;2022-08-04T13:02:17;26.50;55.70
69189;DHT22;56302;52.322;5.926;2022-08-04T13:04:43;26.50;54.50
69189;DHT22;56302;52.322;5.926;2022-08-04T13:07:14;26.50;54.80
69189;DHT22;56302;52.322;5.926;2022-08-04T13:09:40;26.50;56.00
69189;DHT22;56302;52.322;5.926;2022-08-04T13:12:20;26.50;56.00
69189;DHT22;56302;52.322;5.926;2022-08-04T13:14:49;26.60;55.40
69189;DHT22;56302;52.322;5.926;2022-08-04T13:17:16;26.60;54.30
69189;DHT22;56302;52.322;5.926;2022-08-04T13:19:46;26.70;55.20
69189;DHT22;56302;52.322;5.926;2022-08-04T13:22:13;26.70;54.50
69189;DHT22;56302;52.322;5.926;2022-08-04T13:24:41;26.80;53.30
69189;DHT22;56302;52.322;5.926;2022-08-04T13:27:09;26.90;52.60
69189;DHT22;56302;52.322;5.926;2022-08-04T13:29:38;27.00;54.30
69189;DHT22;56302;52.322;5.926;2022-08-04T13:32:05;27.00;53.90
69189;DHT22;56302;52.322;5.926;2022-08-04T13:34:32;27.10;53.60
69189;DHT22;56302;52.322;5.926;2022-08-04T13:37:00;27.20;52.70
69189;DHT22;56302;52.322;5.926;2022-08-04T13:39:27;27.20;52.80
69189;DHT22;56302;52.322;5.926;2022-08-04T13:41:56;27.10;53.60
69189;DHT22;56302;52.322;5.926;2022-08-04T13:44:52;27.10;53.60
69189;DHT22;56302;52.322;5.926;2022-08-04T13:47:33;27.10;53.30
69189;DHT22;56302;52.322;5.926;2022-08-04T13:52:43;26.90;54.50
69189;DHT22;56302;52.322;5.926;2022-08-04T13:55:24;26.90;53.70
69189;DHT22;56302;52.322;5.926;2022-08-04T13:57:56;27.00;55.20
69189;DHT22;56302;52.322;5.926;2022-08-04T14:00:24;27.00;52.70
69189;DHT22;56302;52.322;5.926;2022-08-04T14:03:02;26.90;52.60
69189;DHT22;56302;52.322;5.926;2022-08-04T14:05:30;26.80;52.80
69189;DHT22;56302;52.322;5.926;2022-08-04T14:10:24;26.50;53.80
69189;DHT22;56302;52.322;5.926;2022-08-04T14:12:52;26.40;53.90
69189;DHT22;56302;52.322;5.926;2022-08-04T14:15:32;26.40;53.90
69189;DHT22;56302;52.322;5.926;2022-08-04T14:18:20;26.40;54.00
69189;DHT22;56302;52.322;5.926;2022-08-04T14:21:10;26.60;53.40
69189;DHT22;56302;52.322;5.926;2022-08-04T14:23:48;26.70;53.10
69189;DHT22;56302;52.322;5.926;2022-08-04T14:26:23;26.70;54.00
69189;DHT22;56302;52.322;5.926;2022-08-04T14:28:50;26.50;53.70
69189;DHT22;56302;52.322;5.926;2022-08-04T14:31:21;26.40;54.50
69189;DHT22;56302;52.322;5.926;2022-08-04T14:33:49;26.40;54.10
69189;DHT22;56302;52.322;5.926;2022-08-04T14:36:15;26.50;54.90
69189;DHT22;56302;52.322;5.926;2022-08-04T14:38:51;26.50;54.40
69189;DHT22;56302;52.322;5.926;2022-08-04T14:43:59;26.40;55.40
69189;DHT22;56302;52.322;5.926;2022-08-04T14:46:26;26.40;53.90
69189;DHT22;56302;52.322;5.926;2022-08-04T14:51:36;26.40;54.40
69189;DHT22;56302;52.322;5.926;2022-08-04T14:54:03;26.50;52.70
69189;DHT22;56302;52.322;5.926;2022-08-04T14:56:29;26.60;55.10
69189;DHT22;56302;52.322;5.926;2022-08-04T14:59:07;26.50;55.50
69189;DHT22;56302;52.322;5.926;2022-08-04T15:01:34;26.50;51.90
69189;DHT22;56302;52.322;5.926;2022-08-04T15:04:01;26.40;52.90
69189;DHT22;56302;52.322;5.926;2022-08-04T15:06:28;26.40;54.50
69189;DHT22;56302;52.322;5.926;2022-08-04T15:08:57;26.50;51.70
69189;DHT22;56302;52.322;5.926;2022-08-04T15:11:23;26.60;54.40
69189;DHT22;56302;52.322;5.926;2022-08-04T15:13:52;26.50;50.40
69189;DHT22;56302;52.322;5.926;2022-08-04T15:16:19;26.50;51.50
69189;DHT22;56302;52.322;5.926;2022-08-04T15:18:46;26.60;51.10
69189;DHT22;56302;52.322;5.926;2022-08-04T15:21:11;26.60;51.40
69189;DHT22;56302;52.322;5.926;2022-08-04T15:23:38;26.60;50.30
69189;DHT22;56302;52.322;5.926;2022-08-04T15:26:05;26.60;51.20
69189;DHT22;56302;52.322;5.926;2022-08-04T15:28:32;26.60;50.80
69189;DHT22;56302;52.322;5.926;2022-08-04T15:31:03;26.60;50.10
69189;DHT22;56302;52.322;5.926;2022-08-04T15:33:30;26.60;51.20
69189;DHT22;56302;52.322;5.926;2022-08-04T15:36:15;26.60;51.50
69189;DHT22;56302;52.322;5.926;2022-08-04T15:39:10;26.50;51.60
69189;DHT22;56302;52.322;5.926;2022-08-04T15:42:43;26.30;51.60
69189;DHT22;56302;52.322;5.926;2022-08-04T15:47:13;26.00;51.50
69189;DHT22;56302;52.322;5.926;2022-08-04T15:49:39;25.90;52.40
69189;DHT22;56302;52.322;5.926;2022-08-04T15:52:10;25.90;52.80
69189;DHT22;56302;52.322;5.926;2022-08-04T15:54:36;25.90;52.20
69189;DHT22;56302;52.322;5.926;2022-08-04T15:57:04;25.80;54.10
69189;DHT22;56302;52.322;5.926;2022-08-04T16:07:59;25.70;54.80
69189;DHT22;56302;52.322;5.926;2022-08-04T16:13:15;25.60;52.70
69189;DHT22;56302;52.322;5.926;2022-08-04T16:18:11;25.60;54.10
69189;DHT22;56302;52.322;5.926;2022-08-04T16:20:37;25.60;54.60
69189;DHT22;56302;52.322;5.926;2022-08-04T16:25:45;25.60;53.00
69189;DHT22;56302;52.322;5.926;2022-08-04T16:31:00;25.60;52.90
69189;DHT22;56302;52.322;5.926;2022-08-04T16:33:30;25.50;51.40
69189;DHT22;56302;52.322;5.926;2022-08-04T16:35:56;25.50;53.70
69189;DHT22;56302;52.322;5.926;2022-08-04T16:38:22;25.60;52.80
69189;DHT22;56302;52.322;5.926;2022-08-04T16:40:56;25.70;51.80
69189;DHT22;56302;52.322;5.926;2022-08-04T16:43:25;25.60;52.30
69189;DHT22;56302;52.322;5.926;2022-08-04T16:46:03;25.60;51.50
69189;DHT22;56302;52.322;5.926;2022-08-04T16:48:30;25.50;51.60
69189;DHT22;56302;52.322;5.926;2022-08-04T16:53:40;25.30;53.20
69189;DHT22;56302;52.322;5.926;2022-08-04T16:56:09;25.30;52.80
69189;DHT22;56302;52.322;5.926;2022-08-04T16:58:35;25.20;53.30
69189;DHT22;56302;52.322;5.926;2022-08-04T17:01:08;25.10;54.20
69189;DHT22;56302;52.322;5.926;2022-08-04T17:03:38;25.00;54.00
69189;DHT22;56302;52.322;5.926;2022-08-04T17:06:09;25.00;54.00
69189;DHT22;56302;52.322;5.926;2022-08-04T17:08:34;25.10;54.30
69189;DHT22;56302;52.322;5.926;2022-08-04T17:11:02;25.20;55.10
69189;DHT22;56302;52.322;5.926;2022-08-04T17:16:08;25.20;54.50
69189;DHT22;56302;52.322;5.926;2022-08-04T17:18:39;25.10;55.80
69189;DHT22;56302;52.322;5.926;2022-08-04T17:21:11;25.10;55.00
69189;DHT22;56302;52.322;5.926;2022-08-04T17:23:40;24.90;55.00
69189;DHT22;56302;52.322;5.926;2022-08-04T17:26:17;24.80;56.40
69189;DHT22;56302;52.322;5.926;2022-08-04T17:28:50;24.70;55.90
69189;DHT22;56302;52.322;5.926;2022-08-04T17:31:16;24.60;56.10
69189;DHT22;56302;52.322;5.926;2022-08-04T17:33:51;24.50;56.70
69189;DHT22;56302;52.322;5.926;2022-08-04T17:36:25;24.30;56.80
69189;DHT22;56302;52.322;5.926;2022-08-04T17:39:02;24.30;56.50
69189;DHT22;56302;52.322;5.926;2022-08-04T17:41:34;24.20;57.10
69189;DHT22;56302;52.322;5.926;2022-08-04T17:44:01;24.00;56.80
69189;DHT22;56302;52.322;5.926;2022-08-04T17:46:35;23.90;56.90
69189;DHT22;56302;52.322;5.926;2022-08-04T17:54:13;23.80;58.10
69189;DHT22;56302;52.322;5.926;2022-08-04T17:56:41;23.60;58.60
69189;DHT22;56302;52.322;5.926;2022-08-04T18:07:04;23.30;59.80
69189;DHT22;56302;52.322;5.926;2022-08-04T18:09:32;23.30;60.10
69189;DHT22;56302;52.322;5.926;2022-08-04T18:12:04;23.30;59.90
69189;DHT22;56302;52.322;5.926;2022-08-04T18:15:00;23.20;60.60
69189;DHT22;56302;52.322;5.926;2022-08-04T18:17:41;23.20;60.50
69189;DHT22;56302;52.322;5.926;2022-08-04T18:20:13;23.20;60.60
69189;DHT22;56302;52.322;5.926;2022-08-04T18:22:41;23.20;60.70
69189;DHT22;56302;52.322;5.926;2022-08-04T18:25:08;23.00;61.00
69189;DHT22;56302;52.322;5.926;2022-08-04T18:27:33;22.90;61.60
69189;DHT22;56302;52.322;5.926;2022-08-04T18:29:59;22.80;60.70
69189;DHT22;56302;52.322;5.926;2022-08-04T18:32:26;22.70;61.40
69189;DHT22;56302;52.322;5.926;2022-08-04T18:34:53;22.60;61.50
69189;DHT22;56302;52.322;5.926;2022-08-04T18:37:19;22.70;61.50
69189;DHT22;56302;52.322;5.926;2022-08-04T18:39:45;22.60;61.70
69189;DHT22;56302;52.322;5.926;2022-08-04T18:42:11;22.60;61.90
69189;DHT22;56302;52.322;5.926;2022-08-04T18:44:36;22.50;62.10
69189;DHT22;56302;52.322;5.926;2022-08-04T18:47:02;22.40;62.20
69189;DHT22;56302;52.322;5.926;2022-08-04T18:49:29;22.40;62.20
69189;DHT22;56302;52.322;5.926;2022-08-04T18:51:55;22.30;62.70
69189;DHT22;56302;52.322;5.926;2022-08-04T18:54:21;22.10;63.10
69189;DHT22;56302;52.322;5.926;2022-08-04T18:56:50;22.20;63.20
69189;DHT22;56302;52.322;5.926;2022-08-04T18:59:16;22.10;62.90
69189;DHT22;56302;52.322;5.926;2022-08-04T19:01:42;22.10;63.10
69189;DHT22;56302;52.322;5.926;2022-08-04T19:04:08;22.00;63.40
69189;DHT22;56302;52.322;5.926;2022-08-04T19:06:35;21.90;63.70
69189;DHT22;56302;52.322;5.926;2022-08-04T19:09:01;21.90;64.20
69189;DHT22;56302;52.322;5.926;2022-08-04T19:11:27;21.90;64.20
69189;DHT22;56302;52.322;5.926;2022-08-04T19:13:53;21.90;64.40
69189;DHT22;56302;52.322;5.926;2022-08-04T19:16:18;21.90;64.70
69189;DHT22;56302;52.322;5.926;2022-08-04T19:18:44;21.80;64.90
69189;DHT22;56302;52.322;5.926;2022-08-04T19:21:10;21.70;65.50
69189;DHT22;56302;52.322;5.926;2022-08-04T19:23:35;21.70;65.40
69189;DHT22;56302;52.322;5.926;2022-08-04T19:26:01;21.70;65.80
69189;DHT22;56302;52.322;5.926;2022-08-04T19:28:27;21.70;65.80
69189;DHT22;56302;52.322;5.926;2022-08-04T19:30:54;21.70;65.90
69189;DHT22;56302;52.322;5.926;2022-08-04T19:33:20;21.70;65.80
69189;DHT22;56302;52.322;5.926;2022-08-04T19:35:46;21.60;66.20
69189;DHT22;56302;52.322;5.926;2022-08-04T19:38:12;21.50;66.30
69189;DHT22;56302;52.322;5.926;2022-08-04T19:40:38;21.50;66.70
69189;DHT22;56302;52.322;5.926;2022-08-04T19:43:04;21.40;66.90
69189;DHT22;56302;52.322;5.926;2022-08-04T19:45:30;21.40;67.40
69189;DHT22;56302;52.322;5.926;2022-08-04T19:47:56;21.40;68.00
69189;DHT22;56302;52.322;5.926;2022-08-04T19:50:21;21.30;68.10
69189;DHT22;56302;52.322;5.926;2022-08-04T19:52:47;21.30;68.00
69189;DHT22;56302;52.322;5.926;2022-08-04T19:55:13;21.30;68.10
69189;DHT22;56302;52.322;5.926;2022-08-04T19:57:39;21.20;68.30
69189;DHT22;56302;52.322;5.926;2022-08-04T20:00:11;21.20;68.80
69189;DHT22;56302;52.322;5.926;2022-08-04T20:02:42;21.10;69.00
69189;DHT22;56302;52.322;5.926;2022-08-04T20:05:08;21.10;69.00
69189;DHT22;56302;52.322;5.926;2022-08-04T20:07:33;21.10;68.90
69189;DHT22;56302;52.322;5.926;2022-08-04T20:09:59;21.00;68.80
69189;DHT22;56302;52.322;5.926;2022-08-04T20:12:25;21.00;69.10
69189;DHT22;56302;52.322;5.926;2022-08-04T20:14:50;21.00;69.40
69189;DHT22;56302;52.322;5.926;2022-08-04T20:17:16;20.90;69.80
69189;DHT22;56302;52.322;5.926;2022-08-04T20:19:41;20.90;69.90
69189;DHT22;56302;52.322;5.926;2022-08-04T20:22:07;20.80;69.90
69189;DHT22;56302;52.322;5.926;2022-08-04T20:24:32;20.90;69.70